Airfield :
LOGIN :

Register | Disclaimer

   EN    FR    IT 

 










Legend :    VFR   Marginal VFR   IFR   Intensive IFR   Very Intensive IFR
Visi :
Ceiling :
>= 8 km
>= 3000ft
5 to 8 km
1000 to 3000 ft
1500m to 5 km
500 to 1000 ft
800 to 1500m
200 to 500 ft
< 800m
< 200 ft
Symbols :   Thunderstorms  Fog  Heavy snow  Heavy precipitations  Wind > 20 kt
SIGMETs :     Misc.  Thunderstorms  Icing  Turbulence  Mountain Waves  Volcanic Ashes







- Airport Elevation : 194 ft


EBCV - Chièvres

CURRENT METAR :
  • 130555Z AUTO 07007KT 9999 NCD M01/M02 Q1019 BLU

EXPIRED METARs :
  • 130525Z AUTO 05007KT 9999 NCD M01/M02 Q1019 BLU
  • 130455Z AUTO 07005KT 9999 NCD M02/M03 Q1019 BLU
  • 130425Z AUTO 08004KT 9999 NCD M01/M02 Q1019 BLU
  • 130355Z AUTO 08003KT 9999 NCD M01/M02 Q1020 BLU
  • 130325Z AUTO 07005KT 8000 NCD M01/M02 Q1020 BLU
  • 130313Z AUTO 07005KT 8000 NCD M01/M02 Q1020 BLU

TAF TAF EBCV
Valid from the 12 at 19:00 until the 13 at 07:00 UTC


121541Z 1219/1307 09006KT 8000 FEW015 SCT035
TEMPO 1219/1307 4000 BR SCT012 BKN020
TEMPO 1222/1307 VRB03KT 1500 BR SCT006 BKN010
PROB40
TEMPO 1302/1306 0500 FG FZFG BKN001 BY EBWM
No reported NOTAMs for that airfield.



MET'MAP, your aeronautical weather chart ! - Copyright ORBIFLY December 2007 - Disclaimer

ORBIFLY MET'MAP TEAM :

Programming & Development : Alexandra Zaïnal
Concept & Development : Baudouin d'Aumeries
Co-Development & Prog : Marc-Olivier Méhu
Technical & hardware support : Manuel Goepfert

Contact : metmap@orbifly.com




SOURCES & CREDITS :

   NOAA